Time;durP1;ratioP1;P1;durP2;ratioP2;P2;SDS_P1;SDS_P2;PMS_P1;PMS_P2;Temp;Humidity;BMP_temperature;BMP_pressure;BME280_temperature;BME280_humidity;BME280_pressure;Samples;Min_cycle;Max_cycle;Signal;HPM_P1;HPM_P2
2023/03/14 00:00:37;;;;;;;126.05;50.12;;;;;;;-0.43;76.38;100895.17;1710244;84;21768;-84
2023/03/14 00:03:44;;;;;;;113.17;48.63;;;;;;;-0.42;76.37;100901.81;1710648;84;21204;-86
2023/03/14 00:06:50;;;;;;;101.67;40.17;;;;;;;-0.42;76.35;100889.72;1710674;84;21200;-84
2023/03/14 00:09:57;;;;;;;99.90;42.50;;;;;;;-0.40;76.14;100893.17;1709950;84;21730;-85
2023/03/14 00:13:03;;;;;;;94.42;42.23;;;;;;;-0.50;76.31;100879.04;1710875;83;21204;-84
2023/03/14 00:16:14;;;;;;;91.85;41.33;;;;;;;-0.60;76.50;100883.63;1711436;84;21208;-85
2023/03/14 00:19:21;;;;;;;96.25;41.05;;;;;;;-0.67;76.75;100880.03;1711528;84;21200;-84
2023/03/14 00:22:28;;;;;;;92.72;37.00;;;;;;;-0.73;77.01;100879.92;1711819;84;21168;-84
2023/03/14 00:25:34;;;;;;;86.78;39.33;;;;;;;-0.81;77.16;100874.98;1711895;84;21684;-85
2023/03/14 00:28:40;;;;;;;93.33;39.85;;;;;;;-0.86;77.36;100876.22;1711500;84;21176;-84
2023/03/14 00:31:47;;;;;;;88.37;36.88;;;;;;;-0.89;77.49;100875.94;1711530;84;21157;-85
2023/03/14 00:34:53;;;;;;;91.32;38.30;;;;;;;-0.92;77.71;100872.08;1712001;84;21267;-85
2023/03/14 00:37:59;;;;;;;85.67;38.20;;;;;;;-0.97;77.95;100866.59;1711686;84;21173;-86
2023/03/14 00:41:06;;;;;;;95.75;36.73;;;;;;;-1.02;78.13;100854.77;1696932;84;21182;-86
2023/03/14 00:44:11;;;;;;;81.82;35.05;;;;;;;-1.12;78.48;100858.95;1678322;85;21245;-86
2023/03/14 00:47:20;;;;;;;88.55;38.73;;;;;;;-1.20;78.80;100851.81;1677125;85;22143;-86
2023/03/14 00:50:31;;;;;;;88.75;38.60;;;;;;;-1.22;79.03;100852.35;1656384;85;21225;-85
2023/03/14 00:53:53;;;;;;;93.82;40.58;;;;;;;-1.22;79.05;100854.59;1621829;85;21217;-84
2023/03/14 00:56:59;;;;;;;107.63;41.45;;;;;;;-1.24;79.14;100859.64;1632831;86;21207;-86
2023/03/14 01:00:10;;;;;;;104.85;42.48;;;;;;;-1.20;78.92;100851.81;1657618;86;21189;-85
2023/03/14 01:03:16;;;;;;;108.75;46.90;;;;;;;-1.19;78.79;100855.73;1627008;88;21256;-85
2023/03/14 01:06:27;;;;;;;110.37;47.17;;;;;;;-1.19;78.53;100860.24;1659656;86;21244;-84
2023/03/14 01:09:34;;;;;;;113.90;45.85;;;;;;;-1.17;78.35;100864.59;1659719;86;21224;-86
2023/03/14 01:12:41;;;;;;;116.33;46.18;;;;;;;-1.16;78.07;100857.39;1660315;86;21259;-86
2023/03/14 01:15:47;;;;;;;104.40;44.63;;;;;;;-1.13;77.76;100853.17;1660428;86;21213;-85
2023/03/14 01:18:54;;;;;;;104.03;44.48;;;;;;;-1.24;77.74;100861.84;1659900;86;21228;-84
2023/03/14 01:22:01;;;;;;;132.82;49.53;;;;;;;-1.24;77.60;100856.96;1660960;86;21332;-85
2023/03/14 01:25:07;;;;;;;110.25;46.37;;;;;;;-1.29;77.32;100858.08;1660589;86;21322;-85
2023/03/14 01:28:14;;;;;;;106.63;45.48;;;;;;;-1.31;77.23;100860.48;1659864;86;21240;-84
2023/03/14 01:31:21;;;;;;;101.22;45.20;;;;;;;-1.26;76.93;100861.56;1659621;86;21171;-84
2023/03/14 01:34:28;;;;;;;103.15;46.83;;;;;;;-1.27;76.69;100862.49;1659083;86;21781;-84
2023/03/14 01:37:34;;;;;;;118.62;46.53;;;;;;;-1.26;76.38;100865.59;1660610;86;21277;-85
2023/03/14 01:40:51;;;;;;;107.70;44.98;;;;;;;-1.28;76.15;100865.66;1660879;86;21216;-84
2023/03/14 01:43:57;;;;;;;133.65;53.25;;;;;;;-1.25;75.94;100880.73;1661176;86;21240;-86
2023/03/14 01:47:04;;;;;;;131.32;47.83;;;;;;;-1.33;75.97;100877.99;1658548;86;21787;-85
2023/03/14 01:50:18;;;;;;;103.97;45.75;;;;;;;-1.32;75.90;100883.78;1661028;86;21757;-84
2023/03/14 01:53:33;;;;;;;94.37;39.15;;;;;;;-1.30;75.62;100878.31;1575286;85;21888;-86
2023/03/14 01:56:39;;;;;;;82.37;34.05;;;;;;;-1.37;75.59;100876.43;1623822;88;21218;-84
2023/03/14 01:59:45;;;;;;;68.65;34.60;;;;;;;-1.36;75.38;100879.53;1596761;90;21282;-86
2023/03/14 02:02:55;;;;;;;72.27;31.77;;;;;;;-1.37;75.20;100878.25;1596666;90;21814;-84
2023/03/14 02:06:01;;;;;;;64.27;29.70;;;;;;;-1.37;74.95;100873.75;1598417;90;21245;-86
2023/03/14 02:09:08;;;;;;;63.48;27.35;;;;;;;-1.39;74.94;100864.93;1581376;90;21377;-84
2023/03/14 02:12:16;;;;;;;59.35;30.00;;;;;;;-1.36;74.70;100877.33;1597744;90;21871;-84
2023/03/14 02:15:36;;;;;;;56.18;25.72;;;;;;;-1.39;74.64;100875.66;1567408;90;21322;-84
2023/03/14 02:18:43;;;;;;;49.80;23.65;;;;;;;-1.40;74.55;100872.59;1595167;90;21250;-85
2023/03/14 02:22:15;;;;;;;62.30;26.12;;;;;;;-1.41;74.47;100878.92;1598198;90;21863;-84
2023/03/14 02:25:30;;;;;;;55.65;25.95;;;;;;;-1.44;74.44;100872.38;1598272;90;21247;-86
2023/03/14 02:28:37;;;;;;;52.70;25.92;;;;;;;-1.46;74.57;100872.06;1597243;90;21302;-86
2023/03/14 02:31:42;;;;;;;62.88;26.40;;;;;;;-1.53;74.76;100874.23;1598258;90;21802;-85
2023/03/14 02:34:49;;;;;;;73.80;29.23;;;;;;;-1.57;74.88;100880.72;1598234;90;21795;-86
2023/03/14 02:38:03;;;;;;;69.67;32.15;;;;;;;-1.62;75.01;100877.42;1582905;90;21764;-86
2023/03/14 02:41:08;;;;;;;84.60;32.28;;;;;;;-1.65;75.25;100881.61;1596520;90;21266;-86
2023/03/14 02:44:16;;;;;;;82.40;35.50;;;;;;;-1.69;75.44;100879.59;1598308;90;21217;-84
2023/03/14 02:47:16;;;;;;;77.58;33.38;;;;;;;-1.70;75.54;100888.56;1596843;90;21254;-86
2023/03/14 02:50:26;;;;;;;77.32;34.55;;;;;;;-1.70;75.61;100889.91;1582502;90;21226;-85
2023/03/14 02:53:36;;;;;;;82.33;36.38;;;;;;;-1.72;75.59;100888.27;1597195;90;21811;-85
2023/03/14 02:56:44;;;;;;;86.85;37.30;;;;;;;-1.74;75.56;100882.11;1583127;90;21317;-84
2023/03/14 02:59:54;;;;;;;89.90;38.33;;;;;;;-1.73;75.43;100884.73;1583108;90;21211;-84
2023/03/14 03:03:01;;;;;;;133.67;53.25;;;;;;;-1.75;75.42;100879.91;1578866;90;21246;-86
2023/03/14 03:06:06;;;;;;;114.57;45.15;;;;;;;-1.74;75.26;100877.64;1598315;90;21198;-84
2023/03/14 03:09:13;;;;;;;111.47;43.87;;;;;;;-1.73;75.07;100874.48;1598245;90;21234;-85
2023/03/14 03:12:19;;;;;;;111.65;46.00;;;;;;;-1.73;74.97;100875.82;1598257;90;21357;-86
2023/03/14 03:15:25;;;;;;;114.22;45.25;;;;;;;-1.70;74.88;100871.13;1598351;90;21211;-85
2023/03/14 03:18:31;;;;;;;107.07;43.65;;;;;;;-1.71;74.74;100875.25;1598340;90;21246;-86
2023/03/14 03:21:37;;;;;;;92.17;37.67;;;;;;;-1.69;74.51;100880.07;1598008;90;21222;-86
2023/03/14 03:24:44;;;;;;;80.42;32.65;;;;;;;-1.68;74.19;100879.11;1597852;90;21811;-84
2023/03/14 03:27:50;;;;;;;59.30;25.57;;;;;;;-1.64;73.49;100878.00;1596877;90;21328;-84
2023/03/14 03:30:57;;;;;;;60.90;24.02;;;;;;;-1.57;72.96;100880.72;1597873;90;21438;-84
2023/03/14 03:34:04;;;;;;;44.40;21.97;;;;;;;-1.52;72.34;100875.95;1597122;90;21385;-86
2023/03/14 03:37:11;;;;;;;51.58;21.70;;;;;;;-1.46;71.75;100878.77;1598118;90;21367;-84
2023/03/14 03:40:11;;;;;;;41.70;18.65;;;;;;;-1.40;71.18;100883.33;1598168;90;21214;-86
2023/03/14 03:43:06;;;;;;;38.85;17.20;;;;;;;-1.39;70.86;100881.03;1598404;90;21628;-85
2023/03/14 03:46:13;;;;;;;38.73;18.42;;;;;;;-1.39;70.60;100885.06;1582746;90;21207;-84
2023/03/14 03:49:19;;;;;;;33.53;16.52;;;;;;;-1.41;70.42;100885.63;1598051;90;21346;-86
2023/03/14 03:52:25;;;;;;;36.13;15.68;;;;;;;-1.40;70.27;100887.36;1582485;90;21286;-85
2023/03/14 03:55:35;;;;;;;;;;;;;;;-1.41;70.09;100885.63;1598999;90;21257;-86
2023/03/14 03:58:41;;;;;;;33.38;12.85;;;;;;;-1.41;69.90;100879.38;1596755;90;20213;-84
2023/03/14 04:01:47;;;;;;;25.17;11.95;;;;;;;-1.44;69.90;100881.77;1597092;90;21282;-86
2023/03/14 04:04:55;;;;;;;25.32;12.13;;;;;;;-1.43;69.80;100890.69;1597992;90;21384;-86
2023/03/14 04:07:54;;;;;;;25.68;13.25;;;;;;;-1.46;69.76;100893.05;1597741;90;21842;-84
2023/03/14 04:11:04;;;;;;;26.42;10.43;;;;;;;-1.48;69.73;100890.08;1597608;90;21219;-84
2023/03/14 04:14:14;;;;;;;18.87;9.18;;;;;;;-1.51;69.80;100894.26;1594613;90;21733;-85
2023/03/14 04:17:34;;;;;;;;;;;;;;;-1.49;69.76;100893.72;1598409;90;21269;-85
2023/03/14 04:20:42;;;;;;;18.77;8.85;;;;;;;-1.49;69.82;100888.34;1569292;91;20210;-84
2023/03/14 04:23:51;;;;;;;19.62;9.83;;;;;;;-1.49;69.95;100890.55;1590943;90;21209;-85
2023/03/14 04:27:00;;;;;;;23.22;9.28;;;;;;;-1.48;70.11;100892.76;1590468;90;21222;-86
2023/03/14 04:30:07;;;;;;;15.53;8.45;;;;;;;-1.47;70.19;100892.66;1594555;89;21329;-86
2023/03/14 04:33:17;;;;;;;17.32;9.48;;;;;;;-1.47;70.25;100896.69;1579394;90;21260;-86
2023/03/14 04:36:21;;;;;;;17.57;8.18;;;;;;;-1.43;70.36;100888.00;1595734;90;21273;-86
2023/03/14 04:39:29;;;;;;;19.92;8.45;;;;;;;-1.34;70.44;100882.12;1580567;90;21604;-86
2023/03/14 04:42:38;;;;;;;12.47;6.85;;;;;;;-1.32;70.57;100879.75;1595634;90;21244;-86
2023/03/14 04:45:38;;;;;;;16.73;7.85;;;;;;;-1.22;70.62;100880.09;1595645;90;21201;-86
2023/03/14 04:48:44;;;;;;;15.80;8.48;;;;;;;-1.14;70.72;100879.63;1593973;90;21248;-86
2023/03/14 04:51:51;;;;;;;12.68;7.20;;;;;;;-1.00;70.82;100882.88;1580218;90;21295;-86
2023/03/14 04:54:58;;;;;;;14.07;7.62;;;;;;;-0.87;70.69;100878.05;1595001;89;21857;-85
2023/03/14 04:58:06;;;;;;;16.90;8.30;;;;;;;-0.75;70.36;100876.92;1581015;90;21351;-85
2023/03/14 05:01:14;;;;;;;15.03;7.78;;;;;;;-0.69;70.28;100883.30;1596880;90;21809;-86
2023/03/14 05:04:24;;;;;;;13.18;6.97;;;;;;;-0.61;70.38;100882.34;1596660;90;21912;-85
2023/03/14 05:07:36;;;;;;;18.52;9.68;;;;;;;-0.50;70.24;100886.62;1596649;89;21225;-85
2023/03/14 05:11:02;;;;;;;29.37;9.60;;;;;;;-0.40;70.36;100883.77;1596217;89;21225;-86
2023/03/14 05:14:27;;;;;;;27.22;11.63;;;;;;;-0.26;70.48;100885.63;1591974;89;21254;-85
2023/03/14 05:17:41;;;;;;;26.20;12.45;;;;;;;-0.16;70.14;100877.86;1582425;90;21353;-85
2023/03/14 05:21:05;;;;;;;33.48;12.80;;;;;;;-0.05;69.57;100886.11;1582995;90;21225;-85
2023/03/14 05:24:29;;;;;;;32.00;14.18;;;;;;;0.07;69.26;100883.16;1595401;89;21249;-85
2023/03/14 05:27:53;;;;;;;44.03;16.90;;;;;;;0.17;68.45;100883.83;1549985;91;21923;-85
2023/03/14 05:31:07;;;;;;;43.55;17.07;;;;;;;0.31;68.32;100890.17;1585252;90;21886;-85
2023/03/14 05:34:27;;;;;;;35.28;15.83;;;;;;;0.44;68.56;100891.14;1606581;87;21277;-85
2023/03/14 05:37:28;;;;;;;44.20;19.40;;;;;;;0.56;67.95;100890.82;1584694;90;21925;-85
2023/03/14 05:40:36;;;;;;;38.33;17.87;;;;;;;0.66;67.69;100894.64;1585597;87;21358;-86
2023/03/14 05:43:45;;;;;;;47.15;18.52;;;;;;;0.78;66.92;100894.35;1581652;90;21653;-85
2023/03/14 05:47:05;;;;;;;52.90;22.42;;;;;;;0.91;66.24;100891.25;1626180;88;21433;-85
2023/03/14 05:50:16;;;;;;;66.07;25.65;;;;;;;1.08;66.06;100896.37;1594800;89;21186;-86
2023/03/14 05:53:37;;;;;;;58.85;24.98;;;;;;;1.19;66.04;100890.29;1641565;86;21227;-85
2023/03/14 05:57:00;;;;;;;59.60;24.77;;;;;;;1.30;65.77;100890.42;1651062;86;21209;-86
2023/03/14 06:00:34;;;;;;;53.45;23.22;;;;;;;1.50;65.54;100887.72;1864938;76;22211;-85
2023/03/14 06:03:45;;;;;;;47.93;20.97;;;;;;;1.52;65.64;100892.06;1816963;77;21229;-84
2023/03/14 06:06:54;;;;;;;54.42;23.10;;;;;;;1.62;65.12;100886.90;1815215;79;21180;-85
2023/03/14 06:10:02;;;;;;;59.25;23.40;;;;;;;1.73;64.53;100885.66;1791334;79;21694;-85
2023/03/14 06:13:10;;;;;;;46.30;18.85;;;;;;;1.84;64.65;100890.83;1816568;79;21172;-85
2023/03/14 06:16:17;;;;;;;34.50;13.48;;;;;;;1.99;64.65;100899.20;1816485;79;21177;-86
2023/03/14 06:19:25;;;;;;;29.90;11.68;;;;;;;2.18;64.59;100889.33;1815300;79;21181;-85
2023/03/14 06:22:33;;;;;;;18.92;9.58;;;;;;;2.35;64.34;100884.91;1815341;79;21258;-85
2023/03/14 06:25:38;;;;;;;16.80;8.13;;;;;;;2.54;62.56;100892.09;1818107;77;21164;-86
2023/03/14 06:28:48;;;;;;;13.68;7.35;;;;;;;2.57;62.79;100896.40;1823455;77;21097;-86
2023/03/14 06:31:56;;;;;;;12.03;7.10;;;;;;;2.68;62.96;100887.05;1791413;79;21172;-85
2023/03/14 06:35:04;;;;;;;14.63;7.17;;;;;;;2.81;62.51;100885.16;1800773;79;21212;-85
2023/03/14 06:38:10;;;;;;;17.30;7.72;;;;;;;2.96;62.21;100893.10;1792901;79;21482;-85
2023/03/14 06:41:18;;;;;;;14.47;8.15;;;;;;;3.08;63.55;100886.80;1788810;79;21203;-84
2023/03/14 06:44:26;;;;;;;15.98;6.33;;;;;;;3.26;63.91;100882.72;1798892;79;21208;-84
2023/03/14 06:47:34;;;;;;;17.37;7.22;;;;;;;3.43;61.67;100892.25;1807277;79;22464;-84
2023/03/14 06:50:40;;;;;;;9.50;5.78;;;;;;;3.54;61.47;100893.66;1789084;79;22463;-86
2023/03/14 06:53:34;;;;;;;14.07;7.05;;;;;;;3.66;61.65;100892.34;1805778;79;21227;-85
2023/03/14 06:56:44;;;;;;;16.27;6.72;;;;;;;3.81;61.26;100885.73;1812722;79;21458;-86
2023/03/14 06:59:49;;;;;;;14.65;6.60;;;;;;;3.87;60.08;100887.98;1770259;79;21250;-85
2023/03/14 07:02:58;;;;;;;16.37;7.10;;;;;;;3.95;59.84;100892.33;1789206;79;21160;-86
2023/03/14 07:06:07;;;;;;;14.28;6.70;;;;;;;4.06;60.10;100896.89;1789499;79;21203;-85
2023/03/14 07:09:13;;;;;;;14.63;7.60;;;;;;;4.18;60.72;100893.70;1787876;79;21152;-86
2023/03/14 07:12:20;;;;;;;14.58;7.20;;;;;;;4.29;59.86;100894.59;1791439;79;21195;-85
2023/03/14 07:15:26;;;;;;;13.30;7.00;;;;;;;4.40;60.37;100891.51;1799746;79;21271;-85
2023/03/14 07:18:33;;;;;;;18.40;7.10;;;;;;;4.60;59.49;100888.05;1792213;79;21117;-85
2023/03/14 07:21:40;;;;;;;16.60;7.45;;;;;;;4.73;59.06;100886.57;1792293;79;21145;-85
2023/03/14 07:24:48;;;;;;;20.62;6.87;;;;;;;4.75;58.79;100884.13;1792792;79;21722;-86
2023/03/14 07:27:55;;;;;;;18.30;8.08;;;;;;;4.85;58.07;100883.73;1794403;79;21148;-86
2023/03/14 07:31:04;;;;;;;16.48;7.40;;;;;;;4.92;57.42;100875.09;1791818;79;21219;-86
2023/03/14 07:34:10;;;;;;;11.90;7.05;;;;;;;5.03;57.64;100874.55;1795032;79;21421;-87
2023/03/14 07:37:19;;;;;;;13.08;6.00;;;;;;;5.12;56.61;100877.00;1788101;79;21278;-86
2023/03/14 07:40:26;;;;;;;11.18;5.25;;;;;;;5.20;55.61;100870.45;1755009;80;21204;-86
2023/03/14 07:43:33;;;;;;;10.98;5.80;;;;;;;5.27;56.40;100872.14;1798011;79;21207;-86
2023/03/14 07:46:39;;;;;;;10.32;5.60;;;;;;;5.41;56.79;100861.48;1782081;79;21385;-85
2023/03/14 07:49:46;;;;;;;10.00;5.92;;;;;;;5.51;55.66;100864.67;1789825;79;21154;-84
2023/03/14 07:52:53;;;;;;;10.38;5.22;;;;;;;5.64;56.32;100860.39;1809543;79;21160;-85
2023/03/14 07:56:01;;;;;;;11.75;5.03;;;;;;;5.76;56.22;100865.28;1800922;79;21177;-84
2023/03/14 07:59:11;;;;;;;15.18;7.37;;;;;;;5.84;55.33;100862.28;1792936;79;21171;-86
2023/03/14 08:02:22;;;;;;;12.33;6.12;;;;;;;5.92;55.00;100862.12;1783674;79;21939;-85
2023/03/14 08:05:26;;;;;;;18.15;7.42;;;;;;;5.96;55.05;100856.80;1796673;79;21181;-85
2023/03/14 08:08:34;;;;;;;15.10;6.90;;;;;;;6.06;54.73;100856.36;1791545;79;21157;-86
2023/03/14 08:11:40;;;;;;;14.83;6.83;;;;;;;6.13;55.21;100852.12;1785167;79;21778;-86
2023/03/14 08:14:37;;;;;;;11.05;6.47;;;;;;;6.25;55.01;100849.67;1784185;79;21157;-85
2023/03/14 08:17:38;;;;;;;;;;;;;;;;;;;;;
2023/03/14 08:20:32;;;;;;;14.63;7.45;;;;;;;6.40;55.26;100855.13;1761171;81;21258;-84
2023/03/14 08:23:39;;;;;;;15.03;7.03;;;;;;;6.51;54.29;100851.95;1790799;79;21745;-86
2023/03/14 08:26:48;;;;;;;14.13;6.62;;;;;;;6.60;53.79;100848.41;1770916;80;21180;-86
2023/03/14 08:29:57;;;;;;;16.45;8.45;;;;;;;6.68;54.02;100845.87;1754213;79;21252;-84
2023/03/14 08:33:07;;;;;;;14.07;7.20;;;;;;;6.73;53.02;100838.16;1793597;79;22036;-84
2023/03/14 08:36:17;;;;;;;15.20;7.40;;;;;;;6.75;53.00;100829.84;1797129;79;21831;-84
2023/03/14 08:39:25;;;;;;;10.45;6.55;;;;;;;6.78;52.41;100835.88;1776827;79;21180;-86
2023/03/14 08:42:31;;;;;;;14.18;6.72;;;;;;;6.84;53.34;100838.03;1791664;79;21185;-84
2023/03/14 08:45:37;;;;;;;10.58;7.33;;;;;;;6.95;52.36;100834.82;1790953;79;21776;-85
2023/03/14 08:48:47;;;;;;;12.82;6.60;;;;;;;6.98;51.81;100829.11;1764692;79;21789;-85
2023/03/14 08:51:53;;;;;;;9.28;5.97;;;;;;;6.99;52.75;100833.55;1767619;79;21613;-85
2023/03/14 08:55:00;;;;;;;12.15;6.85;;;;;;;7.02;51.07;100834.64;1778970;79;21166;-85
2023/03/14 08:58:07;;;;;;;15.85;6.47;;;;;;;7.05;52.15;100824.81;1786640;79;21181;-85
2023/03/14 09:01:18;;;;;;;11.63;7.12;;;;;;;7.13;53.11;100826.34;1756596;79;21806;-85
2023/03/14 09:04:27;;;;;;;13.98;7.40;;;;;;;7.23;53.14;100810.88;1779802;79;21098;-84
2023/03/14 09:07:33;;;;;;;12.13;7.45;;;;;;;7.36;53.35;100807.38;1791368;79;21169;-84
2023/03/14 09:10:39;;;;;;;14.95;6.70;;;;;;;7.46;52.93;100795.63;1786790;79;21578;-84
2023/03/14 09:13:48;;;;;;;15.03;7.67;;;;;;;7.49;52.86;100799.43;1788179;79;21167;-85
2023/03/14 09:16:55;;;;;;;13.95;7.03;;;;;;;7.55;52.44;100792.03;1786091;79;21163;-85
2023/03/14 09:20:08;;;;;;;10.65;6.62;;;;;;;7.61;52.28;100789.58;1798763;79;21173;-84
2023/03/14 09:23:16;;;;;;;13.22;8.63;;;;;;;7.67;53.21;100782.72;1778110;79;21734;-84
2023/03/14 09:26:22;;;;;;;18.37;9.03;;;;;;;7.69;50.86;100783.41;1800857;79;21179;-85
2023/03/14 09:29:29;;;;;;;13.48;7.83;;;;;;;7.69;49.61;100769.80;1794488;79;21202;-86
2023/03/14 09:32:35;;;;;;;18.92;8.73;;;;;;;7.67;49.46;100770.46;1784024;79;21162;-85
2023/03/14 09:35:42;;;;;;;18.75;9.30;;;;;;;7.63;50.55;100756.78;1795488;79;21169;-84
2023/03/14 09:38:49;;;;;;;14.30;8.20;;;;;;;7.67;49.81;100751.41;1790428;79;21194;-85
2023/03/14 09:41:58;;;;;;;18.32;8.60;;;;;;;7.69;50.38;100744.78;1781782;79;21197;-86
2023/03/14 09:45:07;;;;;;;18.17;8.23;;;;;;;7.73;50.94;100739.91;1788567;79;21287;-86
2023/03/14 09:48:18;;;;;;;27.07;9.88;;;;;;;7.81;49.90;100730.52;1785112;79;21161;-86
2023/03/14 09:51:26;;;;;;;13.48;7.78;;;;;;;7.83;49.68;100723.03;1782386;79;21184;-84
2023/03/14 09:54:43;;;;;;;19.30;8.28;;;;;;;7.89;50.07;100723.80;1786646;79;21192;-84
2023/03/14 09:57:49;;;;;;;22.25;9.13;;;;;;;7.95;50.09;100710.08;1801820;79;21184;-85
2023/03/14 10:01:02;;;;;;;22.93;9.98;;;;;;;7.99;49.31;100707.92;1788077;79;21209;-84
2023/03/14 10:04:13;;;;;;;16.93;8.43;;;;;;;8.00;48.29;100705.54;1793528;79;21213;-86
2023/03/14 10:07:22;;;;;;;18.57;8.63;;;;;;;7.93;48.79;100696.61;1788186;79;21428;-84
2023/03/14 10:14:21;;;;;;;16.60;8.30;;;;;;;8.08;50.16;100690.67;1778153;79;21251;-86
2023/03/14 10:17:30;;;;;;;13.53;7.50;;;;;;;8.27;51.36;100679.66;1797889;79;21177;-84
2023/03/14 10:20:43;;;;;;;18.05;8.33;;;;;;;8.28;49.09;100677.31;1784712;79;21185;-85
2023/03/14 10:23:51;;;;;;;17.57;8.43;;;;;;;8.25;48.90;100670.80;1769198;81;21220;-84
2023/03/14 10:27:09;;;;;;;24.95;9.85;;;;;;;8.23;49.11;100660.53;1782100;80;21137;-85
2023/03/14 10:30:20;;;;;;;18.45;8.03;;;;;;;8.21;50.75;100653.03;1725876;82;21241;-87
2023/03/14 10:33:29;;;;;;;17.80;9.05;;;;;;;8.25;49.59;100643.55;1708433;82;21772;-86
2023/03/14 10:36:38;;;;;;;18.73;8.98;;;;;;;8.25;50.04;100629.91;1794837;79;21876;-86
2023/03/14 10:40:05;;;;;;;25.72;11.75;;;;;;;8.30;50.80;100624.00;1768254;81;21257;-85
2023/03/14 10:43:17;;;;;;;26.68;12.07;;;;;;;8.38;48.09;100633.67;1792571;79;21206;-85
2023/03/14 10:46:23;;;;;;;19.23;10.48;;;;;;;8.29;48.74;100629.11;1787115;79;21315;-85
2023/03/14 10:49:52;;;;;;;22.17;11.10;;;;;;;8.20;48.93;100622.70;1792932;79;21249;-84
2023/03/14 10:52:58;;;;;;;21.20;11.00;;;;;;;8.23;47.23;100609.27;1791215;79;21161;-85
2023/03/14 10:56:04;;;;;;;21.55;10.82;;;;;;;8.14;48.20;100602.89;1772780;79;21208;-86
2023/03/14 10:59:13;;;;;;;21.07;10.00;;;;;;;8.14;49.25;100605.63;1764401;79;21181;-87
2023/03/14 11:03:13;;;;;;;17.00;9.00;;;;;;;8.23;49.62;100588.31;1768546;81;21206;-86
2023/03/14 11:06:28;;;;;;;23.93;12.83;;;;;;;8.26;50.54;100587.16;1770289;81;21174;-86
2023/03/14 11:09:50;;;;;;;23.73;12.15;;;;;;;8.29;48.25;100580.91;1790773;79;21205;-85
2023/03/14 11:13:12;;;;;;;24.12;10.53;;;;;;;8.28;49.28;100575.11;1800832;79;21191;-85
2023/03/14 11:16:44;;;;;;;17.95;8.10;;;;;;;8.36;51.21;100561.58;1778880;79;21221;-86
2023/03/14 11:20:33;;;;;;;23.92;10.72;;;;;;;8.51;50.82;100551.48;1790425;79;21193;-86
2023/03/14 11:24:30;;;;;;;26.82;12.68;;;;;;;8.58;48.00;100557.52;1797595;79;21755;-85
2023/03/14 11:28:10;;;;;;;31.35;13.62;;;;;;;8.59;47.57;100542.87;1797389;79;21181;-87
2023/03/14 11:31:37;;;;;;;27.48;11.65;;;;;;;8.73;48.52;100533.78;1768096;79;21337;-86
2023/03/14 11:35:01;;;;;;;21.17;9.38;;;;;;;8.78;47.62;100541.83;1790575;79;21146;-84
2023/03/14 11:38:25;;;;;;;19.40;6.58;;;;;;;8.84;47.66;100528.05;1778968;79;21184;-85
2023/03/14 11:41:40;;;;;;;10.65;5.42;;;;;;;8.91;46.60;100531.86;1766882;79;27961;-84
2023/03/14 11:44:46;;;;;;;18.52;8.58;;;;;;;8.89;47.25;100523.85;1771228;79;21196;-84
2023/03/14 11:47:52;;;;;;;23.30;8.80;;;;;;;8.80;46.67;100527.53;1770661;79;21188;-85
2023/03/14 11:51:00;;;;;;;27.02;10.18;;;;;;;8.81;47.16;100519.70;1776775;79;21254;-85
2023/03/14 11:54:14;;;;;;;26.70;10.72;;;;;;;8.84;46.08;100511.69;1779274;79;21311;-85
2023/03/14 11:57:26;;;;;;;21.52;8.43;;;;;;;8.89;45.83;100508.84;1784293;79;21235;-84
2023/03/14 12:00:34;;;;;;;16.57;6.00;;;;;;;8.87;45.92;100513.59;1772188;79;21726;-85
2023/03/14 12:04:03;;;;;;;11.33;5.15;;;;;;;8.90;46.64;100510.55;1792965;79;21306;-84
2023/03/14 12:07:16;;;;;;;13.68;5.33;;;;;;;8.99;45.90;100507.85;1775043;79;21831;-86
2023/03/14 12:10:23;;;;;;;19.67;9.08;;;;;;;8.99;45.03;100507.85;1762647;79;21730;-86
2023/03/14 12:13:39;;;;;;;18.17;7.75;;;;;;;9.00;44.29;100499.53;1772316;79;21281;-86
2023/03/14 12:16:46;;;;;;;18.15;7.15;;;;;;;9.08;44.34;100507.77;1781425;79;21886;-85
2023/03/14 12:20:32;;;;;;;14.78;5.90;;;;;;;9.09;44.49;100497.70;1754531;79;21185;-84
2023/03/14 12:24:00;;;;;;;11.85;4.47;;;;;;;9.12;46.17;100501.45;1774769;79;21255;-85
2023/03/14 12:27:08;;;;;;;17.60;7.55;;;;;;;9.15;44.97;100488.86;1775597;79;21188;-84
2023/03/14 12:30:38;;;;;;;13.53;4.10;;;;;;;9.15;45.81;100491.59;1767921;79;21266;-85
2023/03/14 12:33:38;;;;;;;13.30;4.47;;;;;;;9.17;43.36;100493.15;1715426;79;21185;-84
2023/03/14 12:37:09;;;;;;;13.78;5.35;;;;;;;9.14;43.71;100480.33;1769356;79;21220;-85
2023/03/14 12:40:34;;;;;;;6.42;3.17;;;;;;;9.14;44.34;100476.23;1769094;79;21135;-88
2023/03/14 12:43:41;;;;;;;8.13;4.25;;;;;;;9.24;44.44;100471.50;1762493;79;21194;-88
2023/03/14 12:46:47;;;;;;;18.27;7.15;;;;;;;9.36;44.02;100459.77;1760464;79;21217;-88
2023/03/14 12:49:57;;;;;;;9.55;4.70;;;;;;;9.32;42.71;100459.27;1770671;79;21979;-87
2023/03/14 12:53:27;;;;;;;11.40;4.87;;;;;;;9.37;42.72;100450.58;1755685;79;21211;-88
2023/03/14 12:56:54;;;;;;;10.85;4.45;;;;;;;9.37;42.26;100448.70;1778128;79;21183;-88
2023/03/14 13:00:07;;;;;;;7.35;3.75;;;;;;;9.34;42.48;100429.06;1776985;79;21148;-87
2023/03/14 13:03:34;;;;;;;9.55;4.40;;;;;;;9.34;41.57;100431.28;1766124;79;21193;-88
2023/03/14 13:07:06;;;;;;;7.53;4.45;;;;;;;9.32;42.01;100431.12;1772216;79;21160;-88
2023/03/14 13:10:26;;;;;;;9.30;4.22;;;;;;;9.26;41.97;100432.61;1778727;79;21192;-88
2023/03/14 13:13:34;;;;;;;8.45;4.60;;;;;;;9.24;42.26;100416.92;1782715;79;21170;-88
2023/03/14 13:16:40;;;;;;;9.13;4.22;;;;;;;9.28;42.96;100419.67;1760667;79;21723;-87
2023/03/14 13:19:46;;;;;;;7.97;4.00;;;;;;;9.34;42.58;100427.70;1756444;79;21175;-87
2023/03/14 13:22:56;;;;;;;7.28;4.67;;;;;;;9.31;41.84;100420.68;1781372;79;21184;-87
2023/03/14 13:26:02;;;;;;;12.33;4.28;;;;;;;9.31;41.54;100417.09;1770313;79;21906;-88
2023/03/14 13:29:09;;;;;;;12.53;6.42;;;;;;;9.28;41.21;100415.57;1792556;79;21208;-89
2023/03/14 13:32:32;;;;;;;9.80;3.50;;;;;;;9.18;40.73;100407.52;1776829;79;21223;-87
2023/03/14 13:35:38;;;;;;;10.15;3.67;;;;;;;9.14;41.96;100393.86;1774182;79;21670;-87
2023/03/14 13:38:44;;;;;;;13.48;4.60;;;;;;;9.16;41.92;100388.23;1787153;79;21191;-88
2023/03/14 13:41:49;;;;;;;7.67;3.92;;;;;;;9.22;41.78;100378.00;1752553;79;33940;-88
2023/03/14 13:44:56;;;;;;;7.80;3.45;;;;;;;9.21;41.40;100370.33;1734197;80;21183;-87
2023/03/14 13:48:01;;;;;;;8.55;3.80;;;;;;;9.23;40.97;100355.17;1714997;81;21204;-87
2023/03/14 13:51:13;;;;;;;9.25;3.95;;;;;;;9.24;40.77;100365.58;1752923;80;21133;-88
2023/03/14 13:54:25;;;;;;;11.30;4.58;;;;;;;9.25;41.52;100350.39;1741894;80;21191;-88
2023/03/14 13:57:31;;;;;;;12.45;4.30;;;;;;;9.29;41.80;100349.03;1741316;81;21862;-88
2023/03/14 14:00:37;;;;;;;8.50;4.37;;;;;;;9.28;40.94;100340.52;1689098;84;21196;-89
2023/03/14 14:03:48;;;;;;;23.40;9.65;;;;;;;9.28;42.20;100333.69;1686547;84;21833;-89
2023/03/14 14:07:07;;;;;;;10.10;4.35;;;;;;;9.28;41.38;100336.41;1751412;81;21117;-88
2023/03/14 14:10:13;;;;;;;12.93;3.72;;;;;;;9.25;41.63;100328.55;1744770;80;21789;-89
2023/03/14 14:13:22;;;;;;;7.45;3.50;;;;;;;9.25;42.67;100326.34;1752814;81;21168;-88
2023/03/14 14:16:30;;;;;;;6.72;3.25;;;;;;;9.16;41.83;100321.37;1749377;81;21194;-88
2023/03/14 14:19:30;;;;;;;9.35;2.77;;;;;;;9.13;41.63;100318.48;1752945;81;21208;-87
2023/03/14 14:22:22;;;;;;;6.08;2.75;;;;;;;9.13;40.58;100327.17;1754684;81;21191;-88
2023/03/14 14:25:27;;;;;;;9.53;4.22;;;;;;;9.07;41.01;100322.36;1751149;81;21232;-87
2023/03/14 14:28:43;;;;;;;9.95;4.10;;;;;;;9.10;40.96;100323.41;1749491;81;21206;-87
2023/03/14 14:31:51;;;;;;;6.72;2.87;;;;;;;9.09;40.64;100316.25;1755285;81;21151;-87
2023/03/14 14:35:06;;;;;;;5.72;2.75;;;;;;;8.99;41.56;100312.30;1739031;81;21212;-88
2023/03/14 14:38:20;;;;;;;7.03;2.70;;;;;;;8.98;42.34;100309.20;1755951;81;21747;-86
2023/03/14 14:41:25;;;;;;;4.47;2.83;;;;;;;8.89;41.56;100307.47;1705366;82;36761;-87
2023/03/14 14:44:41;;;;;;;7.87;3.55;;;;;;;8.87;42.37;100309.52;1723917;82;21180;-87